Time;durP1;ratioP1;P1;durP2;ratioP2;P2;SDS_P1;SDS_P2;PMS_P1;PMS_P2;Temp;Humidity;BMP_temperature;BMP_pressure;BME280_temperature;BME280_humidity;BME280_pressure;Samples;Min_cycle;Max_cycle;Signal;HPM_P1;HPM_P2
2021/09/15 00:01:02;;;;;;;12.01;10.78;;;;;;;17.02;57.12;100681.54;452442;115;922657;-83
2021/09/15 00:02:06;;;;;;;12.46;10.24;;;;;;;16.99;57.16;100684.78;455727;115;923039;-83
2021/09/15 00:03:10;;;;;;;11.69;10.37;;;;;;;16.96;57.15;100677.05;457034;115;930288;-83
2021/09/15 00:04:13;;;;;;;11.10;9.96;;;;;;;16.92;57.14;100684.16;457242;113;929785;-83
2021/09/15 00:05:17;;;;;;;13.14;9.94;;;;;;;16.88;57.21;100685.73;438364;118;922170;-80
2021/09/15 00:06:21;;;;;;;14.56;10.36;;;;;;;16.86;57.29;100687.09;442521;116;922708;-82
2021/09/15 00:07:25;;;;;;;11.24;9.88;;;;;;;16.83;57.39;100682.91;441625;120;922509;-81
2021/09/15 00:08:28;;;;;;;10.66;9.68;;;;;;;16.80;57.50;100677.92;447564;117;930389;-81
2021/09/15 00:09:32;;;;;;;12.38;9.76;;;;;;;16.80;57.52;100679.84;437448;120;930188;-81
2021/09/15 00:10:35;;;;;;;12.77;10.21;;;;;;;16.79;57.59;100676.25;441076;120;922688;-82
2021/09/15 00:11:39;;;;;;;11.27;10.03;;;;;;;16.79;57.59;100680.92;444827;118;922939;-81
2021/09/15 00:12:42;;;;;;;12.41;10.48;;;;;;;16.78;57.53;100679.25;441665;118;930110;-81
2021/09/15 00:13:46;;;;;;;14.06;9.61;;;;;;;16.76;57.61;100687.75;440782;119;922458;-82
2021/09/15 00:14:50;;;;;;;11.62;9.28;;;;;;;16.76;57.69;100686.95;434142;121;930832;-82
2021/09/15 00:15:53;;;;;;;10.60;9.50;;;;;;;16.73;57.68;100682.77;451552;115;930043;-82
2021/09/15 00:16:57;;;;;;;10.29;9.00;;;;;;;16.73;57.62;100680.01;454879;115;930588;-82
2021/09/15 00:18:01;;;;;;;9.46;8.68;;;;;;;16.72;57.65;100683.01;462658;114;922529;-82
2021/09/15 00:19:04;;;;;;;10.71;8.43;;;;;;;16.71;57.77;100676.66;462594;114;930543;-82
2021/09/15 00:20:09;;;;;;;11.64;9.15;;;;;;;16.72;57.90;100681.09;456800;115;922933;-81
2021/09/15 00:21:13;;;;;;;16.61;9.21;;;;;;;16.74;57.96;100678.09;454628;115;922956;-82
2021/09/15 00:22:16;;;;;;;13.41;9.27;;;;;;;16.76;57.93;100679.48;453908;115;923082;-83
2021/09/15 00:23:20;;;;;;;12.39;8.96;;;;;;;16.77;58.00;100680.33;454164;115;923025;-81
2021/09/15 00:24:23;;;;;;;9.36;8.30;;;;;;;16.78;57.98;100679.25;444283;118;922557;-81
2021/09/15 00:25:27;;;;;;;13.56;9.03;;;;;;;16.79;58.01;100681.75;440893;120;922361;-81
2021/09/15 00:26:33;;;;;;;9.25;8.17;;;;;;;16.81;58.05;100684.27;440830;120;929869;-82
2021/09/15 00:27:36;;;;;;;9.57;8.33;;;;;;;16.83;58.07;100682.91;429526;121;922554;-82
2021/09/15 00:28:40;;;;;;;9.48;8.00;;;;;;;16.85;58.14;100691.76;449261;115;930325;-82
2021/09/15 00:29:44;;;;;;;9.84;7.94;;;;;;;16.87;58.17;100681.30;454651;115;930298;-82
2021/09/15 00:30:49;;;;;;;8.93;8.08;;;;;;;16.88;58.15;100685.73;454272;115;930838;-82
2021/09/15 00:31:52;;;;;;;16.46;7.97;;;;;;;16.91;58.09;100684.41;454595;115;922766;-82
2021/09/15 00:32:56;;;;;;;9.14;8.10;;;;;;;16.90;58.05;100686.32;452337;115;930536;-82
2021/09/15 00:33:59;;;;;;;8.88;7.26;;;;;;;16.91;58.05;100685.24;461897;114;922948;-82
2021/09/15 00:35:06;;;;;;;8.16;7.29;;;;;;;16.93;57.99;100687.72;455341;116;922581;-82
2021/09/15 00:36:09;;;;;;;6.44;5.84;;;;;;;16.94;57.93;100689.39;438475;118;922656;-82
2021/09/15 00:37:13;;;;;;;6.97;6.32;;;;;;;16.95;57.84;100694.66;432080;121;922646;-83
2021/09/15 00:38:16;;;;;;;7.22;5.71;;;;;;;16.94;57.82;100692.14;446931;115;923753;-82
2021/09/15 00:39:20;;;;;;;5.45;4.88;;;;;;;16.94;57.74;100690.23;454692;115;923575;-83
2021/09/15 00:40:25;;;;;;;5.45;4.74;;;;;;;16.94;57.71;100690.23;455771;115;930636;-82
2021/09/15 00:41:29;;;;;;;6.12;4.91;;;;;;;16.93;57.71;100694.06;455741;115;922999;-82
2021/09/15 00:42:33;;;;;;;5.22;4.60;;;;;;;16.94;57.72;100695.73;454482;115;930370;-82
2021/09/15 00:44:08;;;;;;;5.96;4.44;;;;;;;16.95;57.71;100682.80;455163;114;930540;-81
2021/09/15 00:45:13;;;;;;;9.02;4.66;;;;;;;16.96;57.66;100699.08;453731;115;922466;-80
2021/09/15 00:46:17;;;;;;;4.92;4.28;;;;;;;16.96;57.62;100690.81;456041;115;922207;-81
2021/09/15 00:47:20;;;;;;;4.48;4.08;;;;;;;16.95;57.63;100696.58;456253;115;922526;-82
2021/09/15 00:48:24;;;;;;;5.76;4.34;;;;;;;16.93;57.65;100696.81;454486;115;922217;-80
2021/09/15 00:49:28;;;;;;;5.81;4.14;;;;;;;16.92;57.66;100692.42;453357;115;922725;-80
2021/09/15 00:50:32;;;;;;;5.91;4.47;;;;;;;16.94;57.70;100701.25;456284;115;922423;-79
2021/09/15 00:51:40;;;;;;;7.91;3.86;;;;;;;16.93;57.70;100694.06;445601;117;922404;-80
2021/09/15 00:52:44;;;;;;;5.49;4.83;;;;;;;16.94;57.67;100700.41;446090;115;930568;-82
2021/09/15 00:53:49;;;;;;;5.73;4.58;;;;;;;16.93;57.70;100705.08;452684;115;922581;-83
2021/09/15 00:54:52;;;;;;;5.04;4.14;;;;;;;16.92;57.66;100708.95;454234;115;930517;-82
2021/09/15 00:55:56;;;;;;;5.99;4.99;;;;;;;16.91;57.72;100707.27;446906;117;923079;-81
2021/09/15 00:57:00;;;;;;;5.37;4.23;;;;;;;16.91;57.72;100704.52;446739;115;930658;-83
2021/09/15 00:58:04;;;;;;;4.35;3.75;;;;;;;16.92;57.73;100702.61;452645;115;922838;-83
2021/09/15 00:59:08;;;;;;;8.60;3.74;;;;;;;16.89;57.74;100705.84;454462;114;922521;-82
2021/09/15 01:00:16;;;;;;;7.43;4.69;;;;;;;16.89;57.76;100714.95;454937;115;922517;-82
2021/09/15 01:01:20;;;;;;;5.18;4.65;;;;;;;16.87;58.06;100710.80;452903;115;922479;-82
2021/09/15 01:02:24;;;;;;;6.75;4.01;;;;;;;16.87;58.06;100710.80;454976;115;922965;-82
2021/09/15 01:03:29;;;;;;;5.52;3.78;;;;;;;16.86;57.88;100709.12;454586;113;930642;-82
2021/09/15 01:04:33;;;;;;;6.80;3.75;;;;;;;16.87;57.85;100714.35;446764;116;923482;-83
2021/09/15 01:05:37;;;;;;;4.91;4.18;;;;;;;16.86;57.82;100715.47;447210;115;922835;-82
2021/09/15 01:06:43;;;;;;;5.48;4.06;;;;;;;16.86;57.83;100707.20;456665;115;923107;-83
2021/09/15 01:07:47;;;;;;;4.99;4.02;;;;;;;16.85;57.88;100708.28;454761;113;930556;-82
2021/09/15 01:08:52;;;;;;;6.14;3.36;;;;;;;16.85;57.91;100711.04;455283;115;923040;-82
2021/09/15 01:09:57;;;;;;;3.83;3.51;;;;;;;16.86;57.90;100714.63;454369;113;923060;-83
2021/09/15 01:11:03;;;;;;;4.81;3.78;;;;;;;16.86;57.86;100709.95;454568;113;922542;-82
2021/09/15 01:12:12;;;;;;;4.92;4.17;;;;;;;16.86;57.88;100709.95;453121;115;922457;-82
2021/09/15 01:13:21;;;;;;;4.97;3.93;;;;;;;16.86;57.87;100718.22;435885;115;922908;-82
2021/09/15 01:14:29;;;;;;;5.02;3.87;;;;;;;16.86;57.85;100717.38;458522;113;922550;-81
2021/09/15 01:15:43;;;;;;;5.37;3.29;;;;;;;16.85;57.96;100713.80;459809;114;923096;-81
2021/09/15 01:17:02;;;;;;;3.42;3.00;;;;;;;16.86;57.94;100720.97;456542;114;923343;-82
2021/09/15 01:18:21;;;;;;;4.07;3.36;;;;;;;16.84;57.93;100719.55;459173;114;922644;-83
2021/09/15 01:19:43;;;;;;;4.07;3.40;;;;;;;16.83;57.96;100712.36;459197;114;922652;-83
2021/09/15 01:21:09;;;;;;;5.50;3.26;;;;;;;16.81;58.01;100712.64;458650;114;923393;-83
2021/09/15 01:22:32;;;;;;;5.58;3.63;;;;;;;16.81;58.12;100709.05;459674;114;922875;-83
2021/09/15 01:23:46;;;;;;;5.51;3.77;;;;;;;16.79;58.22;100709.30;431103;122;923165;-82
2021/09/15 01:25:08;;;;;;;4.00;3.08;;;;;;;16.80;58.36;100707.38;429589;122;923331;-83
2021/09/15 01:26:15;;;;;;;6.06;3.61;;;;;;;16.80;58.47;100712.88;457604;114;923198;-83
2021/09/15 01:27:33;;;;;;;3.59;3.21;;;;;;;16.80;58.37;100721.14;456322;114;923117;-83
2021/09/15 01:28:54;;;;;;;4.45;3.40;;;;;;;16.79;58.41;100719.47;460216;114;922873;-84
2021/09/15 01:29:59;;;;;;;4.32;3.14;;;;;;;16.78;58.53;100726.89;459401;114;922460;-83
2021/09/15 01:31:04;;;;;;;5.92;3.34;;;;;;;16.79;58.56;100720.30;458807;114;922829;-83
2021/09/15 01:32:11;;;;;;;4.17;3.48;;;;;;;16.79;58.59;100716.72;461191;114;922279;-83
2021/09/15 01:33:17;;;;;;;4.12;3.16;;;;;;;16.79;58.65;100717.55;459310;114;922593;-82
2021/09/15 01:34:21;;;;;;;4.95;3.14;;;;;;;16.79;58.60;100720.30;458526;114;922503;-82
2021/09/15 01:35:25;;;;;;;3.85;3.41;;;;;;;16.79;58.65;100720.30;459520;114;922513;-83
2021/09/15 01:36:29;;;;;;;5.85;4.28;;;;;;;16.77;58.78;100716.13;459456;114;923065;-83
2021/09/15 01:37:32;;;;;;;8.52;4.84;;;;;;;16.75;58.81;100721.91;459187;114;923023;-82
2021/09/15 01:38:36;;;;;;;5.55;4.85;;;;;;;16.73;58.79;100726.81;459698;114;922377;-83
2021/09/15 01:39:40;;;;;;;7.67;5.37;;;;;;;16.71;58.71;100719.88;451215;117;923062;-82
2021/09/15 01:40:45;;;;;;;7.17;5.40;;;;;;;16.67;58.54;100731.41;451080;114;922372;-82
2021/09/15 01:41:49;;;;;;;8.75;5.61;;;;;;;16.63;58.45;100727.50;461188;114;922434;-82
2021/09/15 01:42:53;;;;;;;7.29;5.25;;;;;;;16.59;58.42;100728.27;460116;114;922436;-84
2021/09/15 01:43:56;;;;;;;6.46;5.51;;;;;;;16.55;58.49;100727.03;460624;114;922223;-82
2021/09/15 01:45:00;;;;;;;7.76;5.40;;;;;;;16.53;58.52;100729.22;459850;114;922214;-82
2021/09/15 01:46:04;;;;;;;7.37;6.16;;;;;;;16.50;58.53;100726.95;458720;114;922957;-83
2021/09/15 01:47:11;;;;;;;7.52;5.32;;;;;;;16.48;58.55;100738.23;459578;114;922410;-83
2021/09/15 01:48:14;;;;;;;9.44;5.88;;;;;;;16.46;58.60;100731.30;459300;114;922548;-83
2021/09/15 01:49:18;;;;;;;8.72;5.59;;;;;;;16.44;58.72;100730.70;459270;114;923116;-83
2021/09/15 01:50:23;;;;;;;7.48;5.79;;;;;;;16.43;58.74;100737.32;450309;116;922761;-83
2021/09/15 01:51:27;;;;;;;10.59;5.77;;;;;;;16.40;58.65;100738.64;445767;116;922759;-82
2021/09/15 01:52:30;;;;;;;7.45;6.05;;;;;;;16.37;58.70;100730.89;452748;114;923339;-83
2021/09/15 01:53:36;;;;;;;9.49;5.71;;;;;;;16.35;58.75;100734.97;450675;117;923068;-83
2021/09/15 01:54:40;;;;;;;9.10;6.19;;;;;;;16.34;58.85;100736.05;452212;114;922628;-82
2021/09/15 01:55:44;;;;;;;8.96;6.05;;;;;;;16.32;58.84;100735.48;460363;114;922503;-82
2021/09/15 01:57:06;;;;;;;9.22;5.88;;;;;;;16.30;58.85;100732.97;460791;114;922381;-83
2021/09/15 01:58:23;;;;;;;7.87;6.16;;;;;;;16.26;58.85;100738.11;455866;114;923320;-82
2021/09/15 01:59:45;;;;;;;6.36;5.64;;;;;;;16.24;58.94;100734.80;458911;114;922454;-83
2021/09/15 02:00:57;;;;;;;8.39;6.58;;;;;;;16.23;59.13;100738.62;457079;114;923004;-82
2021/09/15 02:02:12;;;;;;;8.48;6.18;;;;;;;16.25;59.22;100739.22;432833;120;922629;-83
2021/09/15 02:03:18;;;;;;;6.91;6.18;;;;;;;16.27;59.29;100741.70;432795;122;922754;-82
2021/09/15 02:04:27;;;;;;;10.88;6.88;;;;;;;16.28;59.14;100738.70;453879;114;923017;-84
2021/09/15 02:05:35;;;;;;;6.63;6.00;;;;;;;16.26;59.14;100743.61;456700;114;922946;-81
2021/09/15 02:06:59;;;;;;;9.01;6.71;;;;;;;16.24;59.16;100742.21;459080;114;922562;-82
2021/09/15 02:08:07;;;;;;;9.92;6.39;;;;;;;16.21;59.19;100738.02;459941;114;922713;-82
2021/09/15 02:09:12;;;;;;;7.06;6.37;;;;;;;16.20;59.20;100743.80;458714;114;922918;-82
2021/09/15 02:10:19;;;;;;;7.95;7.02;;;;;;;16.18;59.32;100743.20;458514;114;923063;-82
2021/09/15 02:11:24;;;;;;;10.13;6.79;;;;;;;16.16;59.21;100737.94;450493;117;923013;-82
2021/09/15 02:12:28;;;;;;;8.23;6.68;;;;;;;16.15;59.16;100739.01;451186;114;930656;-82
2021/09/15 02:13:32;;;;;;;7.51;6.47;;;;;;;16.14;59.26;100742.03;459049;114;922590;-83
2021/09/15 02:14:35;;;;;;;6.93;6.16;;;;;;;16.15;59.34;100740.95;459671;114;922603;-82
2021/09/15 02:15:40;;;;;;;7.63;7.00;;;;;;;16.14;59.34;100737.37;460521;114;922948;-83
2021/09/15 02:16:44;;;;;;;7.55;6.65;;;;;;;16.14;59.35;100742.87;458574;114;922508;-82
2021/09/15 02:17:48;;;;;;;7.86;6.54;;;;;;;16.13;59.38;100743.95;459662;114;922544;-82
2021/09/15 02:18:53;;;;;;;10.03;6.67;;;;;;;16.13;59.46;100740.36;456645;114;922993;-82
2021/09/15 02:20:05;;;;;;;9.49;6.02;;;;;;;16.13;59.47;100735.69;456101;114;922948;-82
2021/09/15 02:21:26;;;;;;;7.69;6.68;;;;;;;16.14;59.54;100737.37;457776;114;923102;-84
2021/09/15 02:22:37;;;;;;;7.49;6.72;;;;;;;16.15;59.57;100736.26;457676;114;922644;-82
2021/09/15 02:23:46;;;;;;;9.55;6.42;;;;;;;16.15;59.55;100736.26;458343;114;923077;-83
2021/09/15 02:24:51;;;;;;;7.23;6.27;;;;;;;16.13;59.52;100726.60;458027;114;923046;-83
2021/09/15 02:25:57;;;;;;;6.75;5.96;;;;;;;16.12;59.60;100731.27;429878;119;923425;-81
2021/09/15 02:27:06;;;;;;;7.35;6.34;;;;;;;16.13;59.69;100730.19;447652;114;922656;-82
2021/09/15 02:28:09;;;;;;;8.32;6.42;;;;;;;16.14;59.69;100734.61;451198;116;923046;-83
2021/09/15 02:29:15;;;;;;;8.68;6.72;;;;;;;16.15;59.66;100736.26;434372;122;923099;-82
2021/09/15 02:30:23;;;;;;;10.91;6.14;;;;;;;16.14;59.61;100729.12;449741;114;921994;-82
2021/09/15 02:31:30;;;;;;;7.39;6.77;;;;;;;16.13;59.56;100729.35;460161;114;922335;-81
2021/09/15 02:32:51;;;;;;;10.29;6.98;;;;;;;16.11;59.64;100728.75;447481;116;922703;-82
2021/09/15 02:33:57;;;;;;;8.75;7.26;;;;;;;16.10;59.65;100744.42;437037;114;922856;-83
2021/09/15 02:35:02;;;;;;;11.61;7.68;;;;;;;16.07;59.60;100744.93;451750;117;922650;-81
2021/09/15 02:36:23;;;;;;;;;;;;;;;16.03;59.61;100743.77;456323;114;922291;-83
2021/09/15 02:37:28;;;;;;;14.02;7.57;;;;;;;16.00;59.68;100746.98;458556;114;922618;-83
2021/09/15 02:38:40;;;;;;;11.44;8.01;;;;;;;15.95;59.79;100748.80;459782;114;922943;-84
2021/09/15 02:39:54;;;;;;;9.64;8.02;;;;;;;15.90;59.87;100749.55;455840;114;922975;-84
2021/09/15 02:41:00;;;;;;;10.32;9.04;;;;;;;15.85;59.92;100754.95;458660;114;922448;-83
2021/09/15 02:42:22;;;;;;;11.88;8.76;;;;;;;15.79;59.98;100748.52;450395;115;922574;-83
2021/09/15 02:43:34;;;;;;;9.75;8.81;;;;;;;15.75;60.12;100754.76;453746;114;922628;-81
2021/09/15 02:44:56;;;;;;;11.04;9.48;;;;;;;15.72;60.20;100755.23;459319;113;922486;-83
2021/09/15 02:46:02;;;;;;;11.70;10.12;;;;;;;15.68;60.21;100756.80;457977;114;922537;-84
2021/09/15 02:47:07;;;;;;;11.41;9.68;;;;;;;15.65;60.21;100765.55;455749;114;922499;-85
2021/09/15 02:48:18;;;;;;;11.01;9.42;;;;;;;15.59;60.33;100764.61;456664;114;922833;-82
2021/09/15 02:49:30;;;;;;;12.17;9.91;;;;;;;15.56;60.39;100766.99;456924;114;923019;-82
2021/09/15 02:50:36;;;;;;;16.61;10.36;;;;;;;15.56;60.52;100772.49;457886;114;922478;-82
2021/09/15 02:51:58;;;;;;;15.11;9.83;;;;;;;15.55;60.53;100771.66;458581;114;922534;-83
2021/09/15 02:53:03;;;;;;;12.81;9.96;;;;;;;15.53;60.52;100765.58;458036;114;922788;-83
2021/09/15 02:54:17;;;;;;;11.98;9.67;;;;;;;15.52;60.53;100768.56;425771;118;923297;-81
2021/09/15 02:55:23;;;;;;;13.10;11.08;;;;;;;15.48;60.61;100772.85;445435;116;923061;-82
2021/09/15 02:56:29;;;;;;;15.79;10.31;;;;;;;15.43;60.72;100774.42;441635;118;922582;-82
2021/09/15 02:57:50;;;;;;;12.67;10.08;;;;;;;15.41;60.82;100775.73;444473;117;922609;-83
2021/09/15 02:59:01;;;;;;;11.06;9.94;;;;;;;15.38;61.08;100776.22;448989;117;930497;-83
2021/09/15 03:00:11;;;;;;;13.12;9.66;;;;;;;15.37;61.26;100777.30;440854;119;922511;-83
2021/09/15 03:01:17;;;;;;;12.63;10.19;;;;;;;15.37;61.39;100772.64;443543;118;923045;-82
2021/09/15 03:02:23;;;;;;;21.08;11.06;;;;;;;15.37;61.43;100778.13;442939;118;922485;-81
2021/09/15 03:03:28;;;;;;;10.20;8.94;;;;;;;15.36;61.50;100778.36;428858;119;922650;-83
2021/09/15 03:04:37;;;;;;;11.07;9.64;;;;;;;15.35;61.59;100782.19;452888;114;923165;-82
2021/09/15 03:05:42;;;;;;;10.37;9.36;;;;;;;15.32;61.63;100780.77;456973;114;922823;-84
2021/09/15 03:06:54;;;;;;;13.77;8.90;;;;;;;15.31;61.69;100790.09;457343;114;922514;-82
2021/09/15 03:07:59;;;;;;;13.59;9.42;;;;;;;15.31;61.78;100790.09;457830;114;923043;-83
2021/09/15 03:09:03;;;;;;;10.71;8.57;;;;;;;15.31;61.83;100795.58;459261;114;922516;-83
2021/09/15 03:10:09;;;;;;;7.98;6.11;;;;;;;15.33;61.83;100798.06;459120;114;922548;-83
2021/09/15 03:11:14;;;;;;;8.71;6.98;;;;;;;15.32;61.23;100791.77;450942;117;922622;-83
2021/09/15 03:12:17;;;;;;;13.92;9.14;;;;;;;15.32;61.22;100797.26;450287;114;923259;-82
2021/09/15 03:13:22;;;;;;;10.39;7.63;;;;;;;15.32;61.43;100802.75;459294;114;930149;-83
2021/09/15 03:14:26;;;;;;;11.14;8.32;;;;;;;15.32;61.54;100797.26;459484;114;930246;-83
2021/09/15 03:15:29;;;;;;;13.03;8.82;;;;;;;15.31;61.63;100803.82;458450;113;923909;-83
2021/09/15 03:16:35;;;;;;;8.87;6.91;;;;;;;15.30;61.70;100798.56;460461;114;922438;-83
2021/09/15 03:17:40;;;;;;;5.53;4.81;;;;;;;15.30;61.56;100793.06;459381;113;922719;-83
2021/09/15 03:18:44;;;;;;;8.91;6.58;;;;;;;15.29;60.68;100805.96;459420;114;922763;-81
2021/09/15 03:19:48;;;;;;;11.66;8.12;;;;;;;15.29;60.65;100803.22;460421;114;922129;-82
2021/09/15 03:20:51;;;;;;;4.57;4.10;;;;;;;15.30;60.98;100804.05;460636;114;922800;-83
2021/09/15 03:21:55;;;;;;;5.88;4.46;;;;;;;15.33;59.71;100801.65;458864;114;923008;-83
2021/09/15 03:22:59;;;;;;;6.34;5.22;;;;;;;15.33;59.13;100804.39;458012;114;922682;-83
2021/09/15 03:24:04;;;;;;;6.46;5.41;;;;;;;15.33;59.21;100798.06;459844;114;922522;-84
2021/09/15 03:25:08;;;;;;;11.91;7.14;;;;;;;15.34;59.64;100800.58;459248;114;922979;-83
2021/09/15 03:26:12;;;;;;;8.17;4.53;;;;;;;15.37;59.96;100793.78;459546;114;922938;-83
2021/09/15 03:27:16;;;;;;;7.23;5.30;;;;;;;15.39;59.83;100800.69;459885;114;923198;-82
2021/09/15 03:28:21;;;;;;;5.54;4.41;;;;;;;15.45;59.64;100798.89;459420;114;922501;-86
2021/09/15 03:29:25;;;;;;;13.70;5.52;;;;;;;15.49;59.52;100805.59;457717;114;925886;-83
2021/09/15 03:30:28;;;;;;;13.97;5.61;;;;;;;15.53;59.60;100803.22;451195;116;930533;-82
2021/09/15 03:31:32;;;;;;;10.84;4.81;;;;;;;15.56;59.59;100803.56;451339;115;922511;-83
2021/09/15 03:32:36;;;;;;;10.01;5.35;;;;;;;15.59;59.45;100799.51;459164;114;922979;-83
2021/09/15 03:33:40;;;;;;;8.59;4.49;;;;;;;15.63;59.35;100809.77;450284;116;923409;-83
2021/09/15 03:34:43;;;;;;;7.04;4.34;;;;;;;15.66;59.08;100813.92;447998;114;922629;-84
2021/09/15 03:35:47;;;;;;;10.47;4.17;;;;;;;15.69;58.79;100810.71;459227;114;922914;-82
2021/09/15 03:36:52;;;;;;;5.63;3.67;;;;;;;15.69;58.40;100810.71;447935;116;922690;-82
2021/09/15 03:37:56;;;;;;;6.35;4.92;;;;;;;15.70;58.11;100815.14;447858;114;923404;-82
2021/09/15 03:39:00;;;;;;;8.98;3.74;;;;;;;15.71;57.96;100814.88;458652;114;930599;-82
2021/09/15 03:40:06;;;;;;;6.16;2.73;;;;;;;15.71;57.71;100814.06;460054;114;922351;-82
2021/09/15 03:41:09;;;;;;;4.76;2.95;;;;;;;15.69;56.98;100818.95;459412;114;922537;-82
2021/09/15 03:42:13;;;;;;;6.40;3.02;;;;;;;15.68;56.86;100811.78;458683;114;922842;-82
2021/09/15 03:43:17;;;;;;;4.09;2.76;;;;;;;15.70;56.74;100815.14;459300;114;922264;-83
2021/09/15 03:44:20;;;;;;;5.87;3.19;;;;;;;15.71;56.59;100820.37;460711;114;922408;-82
2021/09/15 03:45:24;;;;;;;5.91;3.38;;;;;;;15.73;56.57;100817.39;458314;114;930504;-82
2021/09/15 03:46:28;;;;;;;5.42;3.01;;;;;;;15.74;56.57;100827.31;460270;114;924927;-81
2021/09/15 03:47:32;;;;;;;4.76;3.06;;;;;;;15.74;56.62;100822.66;456650;116;930619;-83
2021/09/15 03:48:36;;;;;;;31.38;5.74;;;;;;;15.77;56.66;100822.16;457161;114;930534;-81
2021/09/15 03:49:39;;;;;;;14.52;4.23;;;;;;;15.78;56.48;100825.73;454835;116;930603;-82
2021/09/15 03:50:43;;;;;;;10.48;3.73;;;;;;;15.77;56.40;100824.91;447681;116;923110;-81
2021/09/15 03:51:48;;;;;;;11.21;4.20;;;;;;;15.77;56.42;100824.91;451943;116;922875;-83
2021/09/15 03:52:52;;;;;;;11.96;3.14;;;;;;;15.77;56.36;100826.81;451315;116;930515;-83
2021/09/15 03:53:56;;;;;;;6.03;3.43;;;;;;;15.74;56.33;100827.31;452296;116;922543;-84
2021/09/15 03:54:59;;;;;;;4.67;3.37;;;;;;;15.72;56.21;100827.55;446447;118;923102;-83
2021/09/15 03:56:04;;;;;;;8.17;3.76;;;;;;;15.72;56.03;100829.45;446565;118;930536;-83
2021/09/15 03:57:08;;;;;;;10.21;3.97;;;;;;;15.70;56.01;100837.13;439050;119;922967;-83
2021/09/15 03:58:11;;;;;;;8.39;3.95;;;;;;;15.68;55.80;100836.52;451247;114;930730;-83
2021/09/15 03:59:15;;;;;;;11.05;4.45;;;;;;;15.66;55.88;100842.26;450736;116;923342;-83
2021/09/15 04:00:21;;;;;;;16.62;4.44;;;;;;;15.64;55.95;100841.68;450392;114;922817;-82
2021/09/15 04:01:26;;;;;;;8.88;3.92;;;;;;;15.62;55.97;100842.98;458768;114;922601;-82
2021/09/15 04:02:29;;;;;;;10.87;4.13;;;;;;;15.60;56.03;100847.91;459798;114;922464;-83
2021/09/15 04:03:34;;;;;;;6.25;4.12;;;;;;;15.59;56.05;100841.58;460708;114;930433;-83
2021/09/15 04:04:37;;;;;;;10.61;4.99;;;;;;;15.58;56.10;100850.89;451730;116;923074;-82
2021/09/15 04:05:41;;;;;;;14.12;4.85;;;;;;;15.57;56.20;100846.47;450315;116;922167;-82
2021/09/15 04:06:47;;;;;;;9.08;4.09;;;;;;;15.57;56.29;100848.38;457151;114;922130;-83
2021/09/15 04:07:50;;;;;;;9.62;4.80;;;;;;;15.57;56.25;100853.87;461205;114;922138;-82
2021/09/15 04:08:54;;;;;;;7.55;4.32;;;;;;;15.58;56.30;100855.55;461996;114;930198;-82
2021/09/15 04:09:57;;;;;;;11.43;4.23;;;;;;;15.60;56.30;100853.41;460660;114;922348;-83
2021/09/15 04:11:02;;;;;;;8.98;4.47;;;;;;;15.61;56.38;100858.64;459935;114;930638;-83
2021/09/15 04:12:06;;;;;;;8.88;4.57;;;;;;;15.62;56.43;100860.31;460221;114;922582;-82
2021/09/15 04:13:10;;;;;;;7.39;4.61;;;;;;;15.63;56.53;100864.74;457031;116;922624;-81
2021/09/15 04:14:14;;;;;;;12.76;5.69;;;;;;;15.66;56.70;100861.50;456821;115;922852;-83
2021/09/15 04:15:18;;;;;;;9.81;6.69;;;;;;;15.70;56.74;100859.12;457803;113;923105;-83
2021/09/15 04:16:21;;;;;;;9.92;5.54;;;;;;;15.73;56.75;100861.38;464336;114;922501;-82
2021/09/15 04:17:26;;;;;;;10.52;4.50;;;;;;;15.78;56.69;100862.31;463425;114;922448;-82
2021/09/15 04:18:29;;;;;;;9.81;4.16;;;;;;;15.81;56.55;100859.11;463785;114;922522;-81
2021/09/15 04:19:32;;;;;;;9.29;4.45;;;;;;;15.84;56.43;100868.77;462661;114;922967;-82
2021/09/15 04:20:38;;;;;;;6.52;4.52;;;;;;;15.85;56.34;100865.78;453546;116;922729;-82
2021/09/15 04:21:43;;;;;;;15.92;4.88;;;;;;;15.87;56.18;100870.20;453200;114;922656;-81
2021/09/15 04:22:48;;;;;;;7.48;4.29;;;;;;;15.86;56.13;100866.62;464215;114;922275;-82
2021/09/15 04:32:08;;;;;;;10.37;5.33;;;;;;;15.93;56.08;100875.58;462982;113;922554;-82
2021/09/15 04:33:12;;;;;;;7.61;4.94;;;;;;;15.94;55.81;100873.63;463134;114;923014;-81
2021/09/15 04:34:15;;;;;;;8.64;5.26;;;;;;;15.92;55.81;100882.16;462518;114;923097;-81
2021/09/15 04:35:21;;;;;;;12.14;5.51;;;;;;;15.92;55.68;100876.65;459674;113;924395;-84
2021/09/15 04:36:26;;;;;;;7.44;4.77;;;;;;;15.91;55.68;100877.72;462781;113;922990;-82
2021/09/15 04:37:30;;;;;;;8.44;3.89;;;;;;;15.93;55.75;100885.74;462543;113;922618;-81
2021/09/15 04:38:37;;;;;;;6.79;3.38;;;;;;;15.95;55.33;100884.41;463302;114;922820;-84
2021/09/15 04:39:45;;;;;;;11.87;3.71;;;;;;;15.98;54.85;100877.59;463461;112;923022;-78
2021/09/15 04:40:50;;;;;;;23.80;5.38;;;;;;;15.99;54.67;100880.08;462511;113;923086;-80
2021/09/15 04:41:54;;;;;;;12.04;4.28;;;;;;;16.00;54.62;100875.41;462540;114;922486;-80
2021/09/15 04:42:59;;;;;;;13.98;5.16;;;;;;;16.01;54.57;100874.34;462187;113;922848;-79
2021/09/15 04:44:03;;;;;;;12.69;4.91;;;;;;;16.05;54.81;100883.77;452499;116;922940;-80
2021/09/15 04:45:07;;;;;;;12.07;4.44;;;;;;;16.05;54.81;100883.77;462262;113;930627;-81
2021/09/15 04:46:12;;;;;;;13.49;4.26;;;;;;;16.05;54.50;100879.11;461965;114;922954;-81
2021/09/15 04:47:15;;;;;;;10.16;4.41;;;;;;;16.07;54.20;100885.21;462331;114;930599;-82
2021/09/15 04:48:19;;;;;;;7.67;4.16;;;;;;;16.06;53.85;100886.29;463342;114;922978;-82
2021/09/15 04:49:23;;;;;;;8.06;4.11;;;;;;;16.06;53.85;100886.29;464011;114;930611;-81
2021/09/15 04:50:27;;;;;;;8.41;3.94;;;;;;;16.08;53.92;100886.89;463678;114;922455;-80
2021/09/15 04:51:31;;;;;;;11.29;5.20;;;;;;;16.07;53.58;100882.46;462959;114;922356;-79
2021/09/15 04:52:35;;;;;;;8.24;4.78;;;;;;;16.07;53.90;100887.13;462116;113;930511;-80
2021/09/15 04:53:40;;;;;;;14.56;3.66;;;;;;;16.07;54.12;100885.21;463902;114;930397;-81
2021/09/15 04:54:44;;;;;;;6.34;2.66;;;;;;;16.10;53.01;100884.71;465387;114;922822;-80
2021/09/15 04:55:48;;;;;;;5.56;2.36;;;;;;;16.12;51.40;100884.48;454665;116;930433;-79
2021/09/15 04:56:52;;;;;;;4.88;2.33;;;;;;;16.11;50.64;100886.39;455387;114;930333;-80
2021/09/15 04:57:57;;;;;;;4.41;1.72;;;;;;;16.07;50.36;100887.13;465207;114;923114;-81
2021/09/15 04:59:01;;;;;;;3.77;2.12;;;;;;;16.04;50.02;100885.72;463404;114;922793;-80
2021/09/15 05:00:06;;;;;;;4.27;2.14;;;;;;;16.03;49.99;100883.20;462784;114;922885;-79
2021/09/15 05:01:10;;;;;;;8.49;1.94;;;;;;;16.04;49.19;100890.38;452266;116;923154;-80
2021/09/15 05:02:17;;;;;;;4.09;1.59;;;;;;;16.03;48.64;100886.79;445464;117;931357;-81
2021/09/15 05:03:23;;;;;;;4.83;2.07;;;;;;;16.03;48.75;100880.45;453350;116;923118;-80
2021/09/15 05:04:26;;;;;;;3.11;1.83;;;;;;;16.03;48.38;100885.95;443633;118;922974;-80
2021/09/15 05:05:41;;;;;;;6.28;1.76;;;;;;;16.01;48.65;100894.44;457001;114;923129;-82
2021/09/15 05:06:47;;;;;;;5.56;2.08;;;;;;;16.00;48.17;100892.76;461719;114;922566;-80
2021/09/15 05:07:51;;;;;;;3.91;1.99;;;;;;;15.99;48.21;100888.33;462643;114;922706;-81
2021/09/15 05:08:55;;;;;;;7.31;2.17;;;;;;;15.97;48.46;100892.42;463155;114;930553;-80
2021/09/15 05:09:58;;;;;;;4.63;1.79;;;;;;;15.95;48.73;100900.06;455003;116;931083;-81
2021/09/15 05:11:03;;;;;;;3.46;2.09;;;;;;;15.94;48.48;100896.48;455573;114;922814;-80
2021/09/15 05:12:06;;;;;;;8.17;2.79;;;;;;;15.96;48.67;100888.83;464134;114;923132;-80